createdAt,value
2017-10-29T00:00:15.699Z,99.99
2017-10-29T00:01:15.698Z,99.99
2017-10-29T00:02:15.693Z,99.99
2017-10-29T00:03:15.693Z,99.99
2017-10-29T00:04:15.688Z,99.99
2017-10-29T00:05:15.685Z,99.99
2017-10-29T00:06:15.681Z,99.99
2017-10-29T00:07:15.676Z,99.99
2017-10-29T00:08:15.676Z,99.99
2017-10-29T00:09:15.674Z,99.99
2017-10-29T00:10:15.665Z,99.99
2017-10-29T00:11:15.658Z,99.99
2017-10-29T00:12:15.656Z,99.99
2017-10-29T00:13:15.649Z,99.99
2017-10-29T00:14:15.646Z,99.99
2017-10-29T00:15:15.643Z,99.99
2017-10-29T00:16:15.636Z,99.99
2017-10-29T00:17:15.634Z,99.99
2017-10-29T00:18:15.633Z,99.99
2017-10-29T00:19:15.632Z,99.99
2017-10-29T00:20:15.626Z,99.99
2017-10-29T00:21:15.623Z,99.99
2017-10-29T00:22:15.628Z,99.99
2017-10-29T00:23:15.616Z,99.99
2017-10-29T00:24:15.610Z,99.99
2017-10-29T00:25:15.608Z,99.99
2017-10-29T00:26:15.605Z,99.99
2017-10-29T00:27:15.596Z,99.99
2017-10-29T00:28:15.591Z,99.99
2017-10-29T00:29:15.587Z,99.99
2017-10-29T00:30:15.584Z,99.99
2017-10-29T00:31:15.585Z,99.99
2017-10-29T00:32:15.581Z,99.99
2017-10-29T00:33:15.578Z,99.99
2017-10-29T00:34:15.572Z,99.99
2017-10-29T00:35:15.567Z,99.99
2017-10-29T00:36:15.561Z,99.99
2017-10-29T00:37:15.557Z,99.99
2017-10-29T00:38:15.553Z,99.99
2017-10-29T00:39:15.550Z,99.99
2017-10-29T00:40:15.545Z,99.99
2017-10-29T00:41:15.542Z,99.99
2017-10-29T00:42:15.538Z,99.99
2017-10-29T00:43:15.537Z,99.99
2017-10-29T00:44:15.533Z,99.99
2017-10-29T00:45:15.530Z,99.99
2017-10-29T00:46:15.528Z,99.99
2017-10-29T00:47:15.529Z,99.99
2017-10-29T00:48:15.519Z,99.99
2017-10-29T00:49:15.515Z,99.99
2017-10-29T00:50:15.511Z,99.99
2017-10-29T00:51:15.504Z,99.99
2017-10-29T00:52:15.498Z,99.99
2017-10-29T00:53:15.497Z,99.99
2017-10-29T00:54:15.491Z,99.99
2017-10-29T00:55:15.489Z,99.99
2017-10-29T00:56:15.485Z,99.99
2017-10-29T00:57:15.485Z,99.99
2017-10-29T00:58:15.477Z,99.99
2017-10-29T00:59:15.476Z,99.99
2017-10-29T01:00:15.472Z,99.99
2017-10-29T01:01:15.468Z,99.99
2017-10-29T01:02:15.465Z,99.99
2017-10-29T01:03:15.461Z,99.99
2017-10-29T01:04:15.458Z,99.99
2017-10-29T01:05:15.453Z,99.99
2017-10-29T01:06:15.450Z,99.99
2017-10-29T01:07:15.443Z,99.99
2017-10-29T01:08:15.437Z,99.99
2017-10-29T01:09:15.439Z,99.99
2017-10-29T01:10:15.429Z,99.99
2017-10-29T01:11:15.427Z,99.99
2017-10-29T01:12:15.422Z,99.99
2017-10-29T01:13:15.418Z,99.99
2017-10-29T01:14:15.414Z,99.99
2017-10-29T01:15:15.415Z,99.99
2017-10-29T01:16:15.409Z,99.99
2017-10-29T01:17:15.411Z,99.99
2017-10-29T01:18:15.403Z,99.99
2017-10-29T01:19:15.398Z,99.99
2017-10-29T01:20:15.394Z,99.99
2017-10-29T01:21:15.390Z,99.99
2017-10-29T01:22:15.386Z,99.99
2017-10-29T01:23:15.378Z,99.99
2017-10-29T01:24:15.379Z,99.99
2017-10-29T01:25:15.369Z,99.99
2017-10-29T01:26:15.370Z,99.99
2017-10-29T01:27:15.365Z,99.99
2017-10-29T01:28:15.357Z,99.99
2017-10-29T01:29:15.355Z,99.99
2017-10-29T01:30:15.351Z,99.99
2017-10-29T01:31:15.350Z,99.99
2017-10-29T01:32:15.347Z,99.99
2017-10-29T01:33:15.353Z,99.99
2017-10-29T01:34:15.339Z,99.99
2017-10-29T01:35:15.332Z,99.99
2017-10-29T01:36:15.327Z,99.99
2017-10-29T01:37:15.324Z,99.99
2017-10-29T01:38:15.319Z,99.99
2017-10-29T01:39:15.321Z,99.99
2017-10-29T01:40:15.315Z,99.99
2017-10-29T01:41:15.313Z,99.99
2017-10-29T01:42:15.313Z,99.99
2017-10-29T01:43:15.305Z,99.99
2017-10-29T01:44:15.300Z,99.99
2017-10-29T01:45:15.297Z,99.99
2017-10-29T01:46:15.291Z,99.99
2017-10-29T01:47:15.284Z,99.99
2017-10-29T01:48:15.280Z,99.99
2017-10-29T01:49:15.279Z,99.99
2017-10-29T01:50:15.273Z,99.99
2017-10-29T01:51:15.269Z,99.99
2017-10-29T01:52:15.265Z,99.99
2017-10-29T01:53:15.260Z,99.99
2017-10-29T01:54:15.257Z,99.99
2017-10-29T01:55:15.258Z,99.99
2017-10-29T01:56:15.251Z,99.99
2017-10-29T01:57:15.248Z,99.99
2017-10-29T01:58:15.245Z,99.99
2017-10-29T01:59:15.252Z,99.99
2017-10-29T02:00:15.237Z,99.99
2017-10-29T02:01:15.232Z,99.99
2017-10-29T02:02:15.233Z,99.99
2017-10-29T02:03:15.222Z,99.99
2017-10-29T02:04:15.217Z,99.99
2017-10-29T02:05:15.213Z,99.99
2017-10-29T02:06:15.209Z,99.99
2017-10-29T02:07:15.206Z,99.99
2017-10-29T02:08:15.202Z,99.99
2017-10-29T02:09:15.197Z,99.99
2017-10-29T02:10:15.194Z,99.99
2017-10-29T02:11:15.197Z,99.99
2017-10-29T02:12:15.189Z,99.99
2017-10-29T02:13:15.186Z,99.99
2017-10-29T02:14:15.182Z,99.99
2017-10-29T02:15:15.178Z,99.99
2017-10-29T02:16:15.175Z,99.99
2017-10-29T02:17:15.169Z,99.99
2017-10-29T02:18:15.166Z,99.99
2017-10-29T02:19:15.159Z,99.99
2017-10-29T02:20:15.154Z,99.99
2017-10-29T02:21:15.152Z,99.99
2017-10-29T02:22:15.146Z,99.99
2017-10-29T02:23:15.144Z,99.99
2017-10-29T02:24:15.138Z,99.99
2017-10-29T02:25:15.136Z,99.99
2017-10-29T02:26:15.132Z,99.99
2017-10-29T02:27:15.133Z,99.99
2017-10-29T02:28:15.126Z,99.99
2017-10-29T02:29:15.123Z,99.99
2017-10-29T02:30:15.120Z,99.99
2017-10-29T02:31:15.117Z,99.99
2017-10-29T02:32:15.112Z,99.99
2017-10-29T02:33:15.108Z,99.99
2017-10-29T02:34:15.104Z,99.99
2017-10-29T02:35:15.096Z,99.99
2017-10-29T02:36:15.091Z,99.99
2017-10-29T02:37:15.087Z,99.99
2017-10-29T02:38:15.086Z,99.99
2017-10-29T02:39:15.090Z,99.99
2017-10-29T02:40:15.080Z,99.99
2017-10-29T02:41:15.077Z,99.99
2017-10-29T02:42:15.072Z,99.99
2017-10-29T02:43:15.064Z,99.99
2017-10-29T02:44:15.059Z,99.99
2017-10-29T02:45:15.055Z,99.99
2017-10-29T02:46:15.052Z,99.99
2017-10-29T02:47:15.049Z,99.99
2017-10-29T02:48:15.044Z,99.99
2017-10-29T02:49:15.041Z,99.99
2017-10-29T02:50:15.038Z,99.99
2017-10-29T02:51:15.037Z,99.99
2017-10-29T02:52:15.033Z,99.99
2017-10-29T02:53:15.034Z,99.99
2017-10-29T02:54:15.056Z,99.99
2017-10-29T02:55:15.021Z,99.99
2017-10-29T02:56:15.016Z,99.99
2017-10-29T02:57:15.017Z,99.99
2017-10-29T02:58:15.011Z,99.99
2017-10-29T02:59:15.002Z,99.99
2017-10-29T03:00:14.997Z,99.99
2017-10-29T03:01:14.992Z,99.99
2017-10-29T03:02:14.989Z,99.99
2017-10-29T03:03:14.986Z,99.99
2017-10-29T03:04:14.982Z,99.99
2017-10-29T03:05:14.979Z,99.99
2017-10-29T03:06:14.981Z,99.99
2017-10-29T03:07:14.973Z,99.99
2017-10-29T03:08:14.968Z,99.99
2017-10-29T03:09:14.966Z,99.99
2017-10-29T03:10:14.962Z,99.99
2017-10-29T03:11:14.957Z,99.99
2017-10-29T03:12:14.955Z,99.99
2017-10-29T03:13:14.950Z,99.99
2017-10-29T03:14:14.946Z,99.99
2017-10-29T03:15:14.937Z,99.99
2017-10-29T03:16:14.932Z,99.99
2017-10-29T03:17:14.929Z,99.99
2017-10-29T03:18:14.927Z,99.99
2017-10-29T03:19:14.925Z,99.99
2017-10-29T03:20:14.917Z,99.99
2017-10-29T03:21:14.912Z,99.99
2017-10-29T03:22:14.910Z,99.99
2017-10-29T03:23:14.911Z,99.99
2017-10-29T03:24:14.906Z,99.99
2017-10-29T03:25:14.907Z,99.99
2017-10-29T03:26:14.898Z,99.99
2017-10-29T03:27:14.893Z,99.99
2017-10-29T03:28:14.890Z,99.99
2017-10-29T03:29:14.885Z,99.99
2017-10-29T03:30:14.885Z,99.99
2017-10-29T03:31:14.877Z,99.99
2017-10-29T03:32:14.869Z,99.99
2017-10-29T03:33:14.875Z,99.99
2017-10-29T03:34:14.861Z,99.99
2017-10-29T03:35:14.859Z,99.99
2017-10-29T03:36:14.855Z,99.99
2017-10-29T03:37:14.851Z,99.99
2017-10-29T03:38:14.847Z,99.99
2017-10-29T03:39:14.846Z,99.99
2017-10-29T03:40:14.843Z,99.99
2017-10-29T03:41:14.839Z,99.99
2017-10-29T03:42:14.838Z,99.99
2017-10-29T03:43:14.827Z,99.99
2017-10-29T03:44:14.822Z,99.99
2017-10-29T03:45:14.818Z,99.99
2017-10-29T03:46:14.816Z,99.99
2017-10-29T03:47:14.816Z,99.99
2017-10-29T03:48:14.811Z,99.99
2017-10-29T03:49:14.808Z,99.99
2017-10-29T03:50:14.802Z,99.99
2017-10-29T03:51:14.799Z,99.99
2017-10-29T03:52:14.805Z,99.99
2017-10-29T03:53:14.789Z,99.99
2017-10-29T03:54:14.787Z,99.99
2017-10-29T03:55:14.784Z,99.99
2017-10-29T03:56:14.774Z,99.99
2017-10-29T03:57:14.771Z,99.99
2017-10-29T03:58:14.766Z,99.99
2017-10-29T03:59:14.763Z,99.99
2017-10-29T04:00:14.758Z,99.99
2017-10-29T04:01:14.755Z,99.99
2017-10-29T04:02:14.752Z,99.99
2017-10-29T04:03:14.750Z,99.99
2017-10-29T04:04:14.746Z,99.99
2017-10-29T04:05:14.744Z,99.99
2017-10-29T04:06:14.739Z,99.99
2017-10-29T04:07:14.735Z,99.99
2017-10-29T04:08:14.729Z,99.99
2017-10-29T04:09:14.726Z,99.99
2017-10-29T04:10:14.722Z,99.99
2017-10-29T04:11:14.715Z,99.99
2017-10-29T04:12:14.710Z,99.99
2017-10-29T04:13:14.706Z,99.99
2017-10-29T04:14:14.711Z,99.99
2017-10-29T04:15:14.697Z,99.99
2017-10-29T04:16:14.697Z,99.99
2017-10-29T04:17:14.691Z,99.99
2017-10-29T04:18:14.686Z,99.99
2017-10-29T04:19:14.685Z,99.99
2017-10-29T04:20:14.681Z,99.99
2017-10-29T04:21:14.676Z,99.99
2017-10-29T04:22:14.673Z,99.99
2017-10-29T04:23:14.670Z,99.99
2017-10-29T04:24:14.663Z,99.99
2017-10-29T04:25:14.659Z,99.99
2017-10-29T04:26:14.656Z,99.99
2017-10-29T04:27:14.647Z,99.99
2017-10-29T04:28:14.642Z,99.99
2017-10-29T04:29:14.638Z,99.99
2017-10-29T04:30:14.635Z,99.99
2017-10-29T04:31:14.630Z,99.99
2017-10-29T04:32:14.625Z,99.99
2017-10-29T04:33:14.619Z,99.99
2017-10-29T04:34:14.616Z,99.99
2017-10-29T04:35:14.617Z,99.99
2017-10-29T04:36:14.611Z,99.99
2017-10-29T04:37:14.607Z,99.99
2017-10-29T04:38:14.603Z,99.99
2017-10-29T04:39:14.597Z,99.99
2017-10-29T04:40:14.591Z,99.99
2017-10-29T04:41:14.587Z,99.99
2017-10-29T04:42:14.600Z,99.99
2017-10-29T04:43:14.576Z,99.99
2017-10-29T04:44:14.570Z,99.99
2017-10-29T04:45:14.566Z,99.99
2017-10-29T04:46:14.562Z,99.99
2017-10-29T04:47:14.558Z,99.99
2017-10-29T04:48:14.553Z,99.99
2017-10-29T04:49:14.547Z,99.99
2017-10-29T04:50:14.543Z,99.99
2017-10-29T04:51:14.544Z,99.99
2017-10-29T04:52:14.537Z,99.99
2017-10-29T04:53:14.534Z,99.99
2017-10-29T04:54:14.531Z,99.99
2017-10-29T04:55:14.526Z,99.99
2017-10-29T04:56:14.519Z,99.99
2017-10-29T04:57:14.515Z,99.99
2017-10-29T04:58:14.511Z,99.99
2017-10-29T04:59:14.503Z,99.99
2017-10-29T05:00:14.499Z,99.99
2017-10-29T05:01:14.492Z,99.99
2017-10-29T05:02:14.490Z,99.99
2017-10-29T05:03:14.483Z,99.99
2017-10-29T05:04:14.477Z,99.99
2017-10-29T05:05:14.473Z,99.99
2017-10-29T05:06:14.468Z,99.99
2017-10-29T05:07:14.468Z,99.99
2017-10-29T05:08:14.462Z,99.99
2017-10-29T05:09:14.459Z,99.99
2017-10-29T05:10:14.453Z,99.99
2017-10-29T05:11:14.454Z,99.99
2017-10-29T05:12:14.443Z,99.99
2017-10-29T05:13:14.438Z,99.99
2017-10-29T05:14:14.434Z,99.99
2017-10-29T05:15:14.423Z,99.99
2017-10-29T05:16:14.419Z,99.99
2017-10-29T05:17:14.414Z,99.99
2017-10-29T05:18:14.410Z,99.99
2017-10-29T05:19:14.404Z,99.99
2017-10-29T05:20:14.398Z,99.99
2017-10-29T05:21:14.399Z,99.99
2017-10-29T05:22:14.388Z,99.99
2017-10-29T05:23:14.389Z,99.99
2017-10-29T05:24:14.383Z,99.99
2017-10-29T05:25:14.378Z,99.99
2017-10-29T05:26:14.374Z,99.99
2017-10-29T05:27:14.370Z,99.99
2017-10-29T05:28:14.362Z,99.99
2017-10-29T05:29:14.359Z,99.99
2017-10-29T05:30:14.353Z,99.99
2017-10-29T05:31:14.345Z,99.99
2017-10-29T05:32:14.340Z,99.99
2017-10-29T05:33:14.333Z,99.99
2017-10-29T05:34:14.330Z,99.99
2017-10-29T05:35:14.325Z,99.99
2017-10-29T05:36:14.320Z,99.99
2017-10-29T05:37:14.315Z,99.99
2017-10-29T05:38:14.310Z,99.99
2017-10-29T05:39:14.313Z,99.99
2017-10-29T05:40:14.302Z,99.99
2017-10-29T05:41:14.300Z,99.99
2017-10-29T05:42:14.293Z,99.99
2017-10-29T05:43:14.288Z,99.99
2017-10-29T05:44:14.284Z,99.99
2017-10-29T05:45:14.278Z,99.99
2017-10-29T05:46:14.274Z,99.99
2017-10-29T05:47:14.265Z,99.99
2017-10-29T05:48:14.258Z,99.99
2017-10-29T05:49:14.257Z,99.99
2017-10-29T05:50:14.248Z,99.99
2017-10-29T05:51:14.248Z,99.99
2017-10-29T05:52:14.243Z,99.99
2017-10-29T05:53:14.237Z,99.99
2017-10-29T05:54:14.235Z,99.99
2017-10-29T05:55:14.225Z,99.99
2017-10-29T05:56:14.217Z,99.99
2017-10-29T05:57:14.215Z,99.99
2017-10-29T05:58:14.209Z,99.99
2017-10-29T05:59:14.204Z,99.99
2017-10-29T06:00:14.199Z,99.99
2017-10-29T06:01:14.194Z,99.99
2017-10-29T06:02:14.188Z,99.99
2017-10-29T06:03:14.189Z,99.99
2017-10-29T06:04:14.183Z,99.99
2017-10-29T06:05:14.179Z,99.99
2017-10-29T06:06:14.173Z,99.99
2017-10-29T06:07:14.169Z,99.99
2017-10-29T06:08:14.163Z,99.99
2017-10-29T06:09:14.157Z,99.99
2017-10-29T06:10:14.152Z,99.99
2017-10-29T06:11:14.144Z,99.99
2017-10-29T06:12:14.139Z,99.99
2017-10-29T06:13:14.133Z,99.99
2017-10-29T06:14:14.129Z,99.99
2017-10-29T06:15:14.124Z,99.99
2017-10-29T06:16:14.117Z,99.99
2017-10-29T06:17:14.113Z,99.99
2017-10-29T06:18:14.108Z,99.99
2017-10-29T06:19:14.106Z,99.99
2017-10-29T06:20:14.101Z,99.99
2017-10-29T06:21:14.097Z,99.99
2017-10-29T06:22:14.090Z,99.99
2017-10-29T06:23:14.086Z,99.99
2017-10-29T06:24:14.080Z,99.99
2017-10-29T06:25:14.081Z,99.99
2017-10-29T06:26:14.070Z,99.99
2017-10-29T06:27:14.060Z,99.99
2017-10-29T06:28:14.055Z,99.99
2017-10-29T06:29:14.048Z,99.99
2017-10-29T06:30:14.044Z,99.99
2017-10-29T06:31:14.039Z,99.99
2017-10-29T06:32:14.035Z,99.99
2017-10-29T06:33:14.029Z,99.75
2017-10-29T06:34:14.023Z,99.37
2017-10-29T06:35:14.022Z,99.56
2017-10-29T06:36:14.032Z,99.08
2017-10-29T06:37:14.009Z,99.27
2017-10-29T06:38:14.023Z,98.42
2017-10-29T06:39:13.998Z,98.32
2017-10-29T06:40:13.992Z,97.56
2017-10-29T06:41:13.988Z,97.46
2017-10-29T06:42:13.982Z,96.80
2017-10-29T06:43:13.972Z,96.51
2017-10-29T06:44:13.966Z,96.41
2017-10-29T06:45:13.962Z,96.51
2017-10-29T06:46:13.956Z,95.89
2017-10-29T06:47:13.952Z,95.32
2017-10-29T06:48:13.946Z,94.46
2017-10-29T06:49:13.940Z,94.36
2017-10-29T06:50:13.935Z,94.07
2017-10-29T06:51:13.934Z,92.93
2017-10-29T06:52:13.927Z,92.46
2017-10-29T06:53:13.926Z,92.55
2017-10-29T06:54:13.919Z,92.36
2017-10-29T06:55:13.908Z,91.78
2017-10-29T06:56:13.902Z,91.12
2017-10-29T06:57:13.896Z,91.02
2017-10-29T06:58:13.891Z,91.31
2017-10-29T06:59:13.889Z,91.31
2017-10-29T07:00:13.884Z,90.93
2017-10-29T07:01:13.879Z,90.55
2017-10-29T07:02:13.875Z,89.97
2017-10-29T07:03:13.871Z,89.64
2017-10-29T07:04:13.863Z,89.45
2017-10-29T07:05:13.860Z,88.20
2017-10-29T07:06:13.853Z,87.87
2017-10-29T07:07:13.864Z,87.96
2017-10-29T07:08:13.839Z,87.01
2017-10-29T07:09:13.834Z,86.76
2017-10-29T07:10:13.831Z,85.90
2017-10-29T07:11:13.825Z,85.94
2017-10-29T07:12:13.821Z,84.99
2017-10-29T07:13:13.814Z,83.84
2017-10-29T07:14:13.811Z,83.75
2017-10-29T07:15:13.811Z,83.27
2017-10-29T07:16:13.807Z,83.84
2017-10-29T07:17:13.803Z,83.03
2017-10-29T07:18:13.799Z,83.22
2017-10-29T07:19:13.796Z,82.74
2017-10-29T07:20:13.791Z,82.54
2017-10-29T07:21:13.787Z,81.02
2017-10-29T07:22:13.785Z,80.98
2017-10-29T07:23:13.777Z,81.74
2017-10-29T07:24:13.778Z,82.08
2017-10-29T07:25:13.771Z,82.08
2017-10-29T07:26:13.767Z,82.84
2017-10-29T07:27:13.763Z,82.65
2017-10-29T07:28:13.761Z,82.81
2017-10-29T07:29:13.758Z,83.28
2017-10-29T07:30:13.754Z,83.28
2017-10-29T07:31:13.757Z,82.81
2017-10-29T07:32:13.751Z,82.42
2017-10-29T07:33:13.749Z,82.81
2017-10-29T07:34:13.744Z,82.71
2017-10-29T07:35:13.742Z,82.90
2017-10-29T07:36:13.737Z,82.42
2017-10-29T07:37:13.735Z,82.42
2017-10-29T07:38:13.733Z,81.95
2017-10-29T07:39:13.724Z,82.08
2017-10-29T07:40:13.721Z,80.46
2017-10-29T07:41:13.717Z,79.88
2017-10-29T07:42:13.714Z,79.98
2017-10-29T07:43:13.711Z,79.44
2017-10-29T07:44:13.706Z,80.02
2017-10-29T07:45:13.705Z,78.97
2017-10-29T07:46:13.700Z,78.81
2017-10-29T07:47:13.702Z,77.67
2017-10-29T07:48:13.699Z,77.38
2017-10-29T07:49:13.697Z,75.95
2017-10-29T07:50:13.694Z,75.26
2017-10-29T07:51:13.690Z,74.68
2017-10-29T07:52:13.687Z,74.15
2017-10-29T07:53:13.685Z,71.69
2017-10-29T07:54:13.683Z,70.25
2017-10-29T07:55:13.676Z,70.00
2017-10-29T07:56:13.673Z,69.13
2017-10-29T07:57:13.673Z,67.60
2017-10-29T07:58:13.674Z,67.12
2017-10-29T07:59:13.675Z,66.49
2017-10-29T08:00:13.673Z,66.39
2017-10-29T08:01:13.672Z,65.81
2017-10-29T08:02:13.672Z,64.28
2017-10-29T08:03:13.667Z,64.40
2017-10-29T08:04:13.665Z,63.73
2017-10-29T08:05:13.665Z,63.35
2017-10-29T08:06:13.665Z,62.61
2017-10-29T08:07:13.673Z,62.81
2017-10-29T08:08:13.666Z,61.27
2017-10-29T08:09:13.668Z,61.55
2017-10-29T08:10:13.667Z,60.34
2017-10-29T08:11:13.671Z,60.40
2017-10-29T08:12:13.672Z,59.76
2017-10-29T08:13:13.672Z,59.60
2017-10-29T08:14:13.675Z,59.12
2017-10-29T08:15:13.676Z,58.47
2017-10-29T08:16:13.677Z,57.45
2017-10-29T08:17:13.677Z,56.58
2017-10-29T08:18:13.680Z,56.20
2017-10-29T08:19:13.685Z,55.65
2017-10-29T08:20:13.681Z,55.35
2017-10-29T08:21:13.682Z,54.65
2017-10-29T08:22:13.683Z,54.27
2017-10-29T08:23:13.685Z,54.34
2017-10-29T08:24:13.688Z,54.93
2017-10-29T08:25:13.691Z,56.12
2017-10-29T08:26:13.695Z,57.46
2017-10-29T08:27:13.701Z,58.84
2017-10-29T08:28:13.703Z,58.32
2017-10-29T08:29:13.706Z,58.15
2017-10-29T08:30:13.709Z,57.60
2017-10-29T08:31:13.711Z,56.68
2017-10-29T08:32:13.713Z,56.43
2017-10-29T08:33:13.715Z,56.87
2017-10-29T08:34:13.720Z,55.33
2017-10-29T08:35:13.718Z,55.13
2017-10-29T08:36:13.721Z,55.18
2017-10-29T08:37:13.724Z,56.08
2017-10-29T08:38:13.727Z,57.50
2017-10-29T08:39:13.730Z,58.04
2017-10-29T08:40:13.733Z,59.29
2017-10-29T08:41:13.735Z,59.96
2017-10-29T08:42:13.740Z,60.38
2017-10-29T08:43:13.750Z,61.24
2017-10-29T08:44:13.749Z,62.65
2017-10-29T08:45:13.751Z,63.22
2017-10-29T08:46:13.754Z,64.18
2017-10-29T08:47:13.755Z,65.30
2017-10-29T08:48:13.757Z,66.03
2017-10-29T08:49:13.759Z,66.32
2017-10-29T08:50:13.767Z,67.76
2017-10-29T08:51:13.759Z,67.94
2017-10-29T08:52:13.758Z,67.94
2017-10-29T08:53:13.761Z,69.00
2017-10-29T08:54:13.763Z,69.19
2017-10-29T08:55:13.763Z,69.95
2017-10-29T08:56:13.762Z,70.01
2017-10-29T08:57:13.764Z,70.01
2017-10-29T08:58:13.764Z,70.21
2017-10-29T08:59:13.770Z,70.68
2017-10-29T09:00:13.769Z,71.07
2017-10-29T09:01:13.769Z,71.26
2017-10-29T09:02:13.769Z,71.64
2017-10-29T09:03:13.765Z,71.73
2017-10-29T09:04:13.767Z,71.64
2017-10-29T09:05:13.764Z,72.22
2017-10-29T09:06:13.765Z,72.44
2017-10-29T09:07:13.768Z,71.77
2017-10-29T09:08:13.767Z,70.95
2017-10-29T09:09:13.765Z,69.62
2017-10-29T09:10:13.768Z,67.29
2017-10-29T09:11:13.766Z,65.65
2017-10-29T09:12:13.764Z,64.95
2017-10-29T09:13:13.766Z,62.90
2017-10-29T09:14:13.765Z,60.75
2017-10-29T09:15:13.762Z,58.17
2017-10-29T09:16:13.761Z,56.18
2017-10-29T09:17:13.762Z,54.57
2017-10-29T09:18:13.764Z,52.45
2017-10-29T09:19:13.766Z,52.33
2017-10-29T09:20:13.768Z,51.99
2017-10-29T09:21:13.769Z,51.27
2017-10-29T09:22:13.773Z,50.35
2017-10-29T09:23:13.779Z,48.54
2017-10-29T09:24:13.782Z,47.60
2017-10-29T09:25:13.785Z,46.08
2017-10-29T09:26:13.789Z,46.17
2017-10-29T09:27:13.794Z,46.25
2017-10-29T09:28:13.807Z,46.47
2017-10-29T09:29:13.801Z,46.30
2017-10-29T09:30:13.806Z,46.20
2017-10-29T09:31:13.806Z,46.08
2017-10-29T09:32:13.810Z,46.06
2017-10-29T09:33:13.817Z,46.92
2017-10-29T09:34:13.820Z,46.54
2017-10-29T09:35:13.826Z,47.58
2017-10-29T09:36:13.831Z,47.89
2017-10-29T09:37:13.836Z,48.43
2017-10-29T09:38:13.841Z,49.58
2017-10-29T09:39:13.850Z,50.04
2017-10-29T09:40:13.854Z,50.66
2017-10-29T09:41:13.861Z,50.54
2017-10-29T09:42:13.865Z,50.76
2017-10-29T09:43:13.871Z,51.34
2017-10-29T09:44:13.882Z,51.23
2017-10-29T09:45:13.879Z,51.91
2017-10-29T09:46:13.885Z,52.48
2017-10-29T09:47:13.885Z,52.89
2017-10-29T09:48:13.892Z,52.89
2017-10-29T09:49:13.893Z,52.56
2017-10-29T09:50:13.899Z,52.34
2017-10-29T09:51:13.904Z,52.61
2017-10-29T09:52:13.906Z,52.55
2017-10-29T09:53:13.911Z,54.25
2017-10-29T09:54:13.916Z,54.42
2017-10-29T09:55:13.925Z,55.16
2017-10-29T09:56:13.928Z,56.38
2017-10-29T09:57:13.931Z,57.82
2017-10-29T09:58:13.935Z,59.00
2017-10-29T09:59:13.940Z,58.91
2017-10-29T10:00:13.941Z,59.00
2017-10-29T10:01:13.945Z,59.19
2017-10-29T10:02:13.948Z,59.83
2017-10-29T10:03:13.948Z,60.70
2017-10-29T10:04:13.951Z,60.95
2017-10-29T10:05:13.956Z,59.80
2017-10-29T10:06:13.968Z,59.58
2017-10-29T10:07:13.964Z,59.16
2017-10-29T10:08:13.965Z,60.06
2017-10-29T10:09:13.971Z,60.35
2017-10-29T10:10:13.970Z,61.24
2017-10-29T10:11:13.969Z,61.72
2017-10-29T10:12:13.971Z,61.60
2017-10-29T10:13:13.972Z,62.17
2017-10-29T10:14:13.973Z,62.23
2017-10-29T10:15:13.975Z,62.43
2017-10-29T10:16:13.976Z,63.45
2017-10-29T10:17:13.978Z,64.69
2017-10-29T10:18:13.979Z,64.98
2017-10-29T10:19:13.986Z,65.71
2017-10-29T10:20:13.987Z,66.25
2017-10-29T10:21:13.986Z,67.21
2017-10-29T10:22:13.989Z,68.26
2017-10-29T10:23:13.988Z,69.21
2017-10-29T10:24:13.989Z,70.81
2017-10-29T10:25:13.988Z,71.67
2017-10-29T10:26:13.992Z,72.91
2017-10-29T10:27:13.985Z,73.19
2017-10-29T10:28:13.983Z,74.05
2017-10-29T10:29:13.982Z,74.05
2017-10-29T10:30:13.981Z,74.91
2017-10-29T10:31:13.982Z,74.24
2017-10-29T10:32:13.980Z,74.69
2017-10-29T10:33:13.986Z,74.49
2017-10-29T10:34:13.979Z,74.88
2017-10-29T10:35:13.982Z,76.08
2017-10-29T10:36:13.979Z,77.70
2017-10-29T10:37:13.980Z,78.28
2017-10-29T10:38:13.977Z,78.37
2017-10-29T10:39:13.980Z,79.17
2017-10-29T10:40:13.974Z,78.89
2017-10-29T10:41:13.972Z,79.14
2017-10-29T10:42:13.971Z,78.99
2017-10-29T10:43:13.965Z,78.49
2017-10-29T10:44:13.962Z,76.40
2017-10-29T10:45:13.962Z,73.90
2017-10-29T10:46:13.960Z,71.57
2017-10-29T10:47:13.959Z,69.37
2017-10-29T10:48:13.957Z,67.16
2017-10-29T10:49:13.958Z,64.28
2017-10-29T10:50:13.955Z,61.84
2017-10-29T10:51:13.960Z,59.63
2017-10-29T10:52:13.962Z,58.60
2017-10-29T10:53:13.964Z,58.15
2017-10-29T10:54:13.960Z,55.96
2017-10-29T10:55:13.966Z,55.46
2017-10-29T10:56:13.962Z,55.99
2017-10-29T10:57:13.964Z,56.76
2017-10-29T10:58:13.964Z,57.65
2017-10-29T10:59:13.963Z,57.33
2017-10-29T11:00:13.965Z,58.22
2017-10-29T11:01:13.965Z,58.32
2017-10-29T11:02:13.971Z,57.40
2017-10-29T11:03:13.971Z,58.33
2017-10-29T11:04:13.973Z,58.75
2017-10-29T11:05:13.975Z,59.61
2017-10-29T11:06:13.978Z,59.97
2017-10-29T11:07:13.982Z,61.98
2017-10-29T11:08:13.985Z,63.00
2017-10-29T11:09:13.987Z,63.67
2017-10-29T11:10:13.989Z,64.79
2017-10-29T11:11:13.987Z,66.41
2017-10-29T11:12:13.986Z,67.37
2017-10-29T11:13:13.988Z,67.63
2017-10-29T11:14:13.991Z,68.96
2017-10-29T11:15:13.996Z,69.54
2017-10-29T11:16:13.996Z,70.40
2017-10-29T11:17:13.996Z,71.03
2017-10-29T11:18:13.998Z,73.14
2017-10-29T11:19:13.997Z,73.19
2017-10-29T11:20:13.997Z,74.15
2017-10-29T11:21:13.998Z,75.59
2017-10-29T11:22:13.998Z,77.11
2017-10-29T11:23:14.007Z,77.69
2017-10-29T11:24:13.992Z,78.30
2017-10-29T11:25:13.992Z,78.11
2017-10-29T11:26:13.992Z,78.20
2017-10-29T11:27:13.991Z,78.30
2017-10-29T11:28:13.988Z,77.92
2017-10-29T11:29:13.988Z,77.44
2017-10-29T11:30:13.988Z,77.72
2017-10-29T11:31:13.991Z,78.81
2017-10-29T11:32:13.989Z,78.34
2017-10-29T11:33:13.987Z,77.86
2017-10-29T11:34:13.986Z,77.99
2017-10-29T11:35:13.985Z,77.04
2017-10-29T11:36:13.983Z,76.94
2017-10-29T11:37:14.005Z,76.46
2017-10-29T11:38:13.982Z,75.60
2017-10-29T11:39:13.977Z,74.93
2017-10-29T11:40:13.974Z,74.13
2017-10-29T11:41:13.973Z,73.27
2017-10-29T11:42:13.971Z,73.46
2017-10-29T11:43:13.971Z,72.85
2017-10-29T11:44:13.980Z,73.14
2017-10-29T11:45:13.968Z,72.98
2017-10-29T11:46:13.967Z,73.27
2017-10-29T11:47:13.970Z,74.04
2017-10-29T11:48:13.968Z,73.84
2017-10-29T11:50:13.965Z,73.46
2017-10-29T11:51:13.969Z,73.55
2017-10-29T11:52:13.964Z,73.04
2017-10-29T11:53:13.961Z,73.33
2017-10-29T11:54:13.959Z,73.04
2017-10-29T11:55:13.957Z,72.75
2017-10-29T11:56:13.951Z,72.28
2017-10-29T11:57:13.950Z,71.99
2017-10-29T11:58:13.948Z,71.76
2017-10-29T11:59:13.946Z,71.03
2017-10-29T12:00:13.945Z,71.13
2017-10-29T12:01:13.944Z,70.56
2017-10-29T12:02:13.942Z,71.32
2017-10-29T12:03:13.941Z,70.46
2017-10-29T12:04:13.941Z,70.04
2017-10-29T12:05:13.940Z,70.42
2017-10-29T12:06:13.942Z,70.36
2017-10-29T12:07:13.936Z,70.65
2017-10-29T12:08:13.933Z,70.36
2017-10-29T12:09:13.932Z,70.07
2017-10-29T12:10:13.930Z,70.07
2017-10-29T12:11:13.928Z,70.07
2017-10-29T12:12:13.923Z,70.17
2017-10-29T12:13:13.919Z,70.36
2017-10-29T12:14:13.922Z,70.27
2017-10-29T12:15:13.917Z,70.65
2017-10-29T12:16:13.918Z,70.14
2017-10-29T12:17:13.916Z,70.04
2017-10-29T12:18:13.914Z,70.23
2017-10-29T12:19:13.911Z,70.58
2017-10-29T12:20:13.906Z,70.96
2017-10-29T12:21:13.904Z,71.53
2017-10-29T12:22:13.902Z,72.78
2017-10-29T12:23:13.898Z,73.07
2017-10-29T12:24:13.896Z,73.16
2017-10-29T12:25:13.895Z,73.16
2017-10-29T12:26:13.892Z,72.49
2017-10-29T12:27:13.891Z,71.44
2017-10-29T12:28:13.893Z,71.25
2017-10-29T12:29:13.890Z,70.77
2017-10-29T12:30:13.887Z,70.77
2017-10-29T12:31:13.885Z,71.34
2017-10-29T12:32:13.887Z,70.87
2017-10-29T12:33:13.880Z,70.20
2017-10-29T12:34:13.886Z,70.87
2017-10-29T12:35:13.874Z,71.06
2017-10-29T12:36:13.870Z,70.90
2017-10-29T12:37:13.866Z,70.81
2017-10-29T12:38:13.864Z,70.81
2017-10-29T12:39:13.861Z,71.19
2017-10-29T12:40:13.857Z,71.38
2017-10-29T12:41:13.856Z,71.28
2017-10-29T12:42:13.856Z,71.34
2017-10-29T12:43:13.849Z,71.92
2017-10-29T12:44:13.851Z,71.53
2017-10-29T12:45:13.847Z,71.95
2017-10-29T12:46:13.852Z,72.53
2017-10-29T12:47:13.845Z,72.43
2017-10-29T12:48:13.839Z,73.19
2017-10-29T12:49:13.838Z,72.11
2017-10-29T12:50:13.833Z,73.48
2017-10-29T12:51:13.851Z,73.00
2017-10-29T12:52:13.824Z,73.29
2017-10-29T12:53:13.821Z,73.39